Time;durP1;ratioP1;P1;durP2;ratioP2;P2;SDS_P1;SDS_P2;PMS_P1;PMS_P2;Temp;Humidity;BMP_temperature;BMP_pressure;BME280_temperature;BME280_humidity;BME280_pressure;Samples;Min_cycle;Max_cycle;Signal;HPM_P1;HPM_P2
2023/09/01 00:02:06;;;;;;;8.95;4.10;;;;;;;;;;5033297;28;20426;-73
2023/09/01 00:04:32;;;;;;;10.45;3.92;;;;;;;;;;5031258;28;20198;-73
2023/09/01 00:06:59;;;;;;;7.55;4.00;;;;;;;;;;5019385;28;20211;-73
2023/09/01 00:09:24;;;;;;;10.63;4.25;;;;;;;;;;5031776;28;20284;-73
2023/09/01 00:11:49;;;;;;;8.38;3.70;;;;;;;;;;5019921;28;20304;-73
2023/09/01 00:14:15;;;;;;;7.70;5.00;;;;;;;;;;5030242;28;20197;-73
2023/09/01 00:16:40;;;;;;;6.40;4.15;;;;;;;;;;5018150;28;20209;-74
2023/09/01 00:19:06;;;;;;;9.38;5.00;;;;;;;;;;5028737;28;20307;-74
2023/09/01 00:21:32;;;;;;;6.65;4.47;;;;;;;;;;5034176;28;20201;-74
2023/09/01 00:23:57;;;;;;;7.50;5.05;;;;;;;;;;5030024;28;20280;-74
2023/09/01 00:26:23;;;;;;;8.75;4.45;;;;;;;;;;5030530;28;20674;-72
2023/09/01 00:28:48;;;;;;;8.20;5.75;;;;;;;;;;5025154;28;20179;-74
2023/09/01 00:31:16;;;;;;;10.50;6.18;;;;;;;;;;5007583;28;20281;-74
2023/09/01 00:33:41;;;;;;;9.75;5.93;;;;;;;;;;5031098;28;20190;-73
2023/09/01 00:36:07;;;;;;;11.70;6.10;;;;;;;;;;5028581;28;20301;-73
2023/09/01 00:38:32;;;;;;;10.15;6.18;;;;;;;;;;5029176;28;20284;-74
2023/09/01 00:40:57;;;;;;;10.65;6.00;;;;;;;;;;5025337;28;20322;-74
2023/09/01 00:43:23;;;;;;;8.20;5.60;;;;;;;;;;5027300;28;20281;-74
2023/09/01 00:45:49;;;;;;;12.65;6.75;;;;;;;;;;5028914;28;20365;-74
2023/09/01 00:48:15;;;;;;;11.27;6.28;;;;;;;;;;5030193;28;20247;-74
2023/09/01 00:50:41;;;;;;;15.30;6.95;;;;;;;;;;5023304;28;20189;-73
2023/09/01 00:53:06;;;;;;;8.73;6.78;;;;;;;;;;5030552;28;20309;-74
2023/09/01 00:55:33;;;;;;;9.30;6.22;;;;;;;;;;5037084;28;20225;-73
2023/09/01 00:58:00;;;;;;;11.52;6.20;;;;;;;;;;5029576;28;20197;-74
2023/09/01 01:00:26;;;;;;;9.32;6.10;;;;;;;;;;5031643;28;20632;-74
2023/09/01 01:02:51;;;;;;;10.43;5.80;;;;;;;;;;5029574;28;20210;-74
2023/09/01 01:05:19;;;;;;;8.98;5.72;;;;;;;;;;5034267;28;20186;-74
2023/09/01 01:08:05;;;;;;;13.35;6.32;;;;;;;;;;5026436;28;20201;-74
2023/09/01 01:10:41;;;;;;;9.60;6.20;;;;;;;;;;5020158;28;20241;-73
2023/09/01 01:13:10;;;;;;;13.52;6.97;;;;;;;;;;5029909;28;20190;-74
2023/09/01 01:15:37;;;;;;;12.25;7.00;;;;;;;;;;5029983;28;20280;-74
2023/09/01 01:18:08;;;;;;;9.63;6.63;;;;;;;;;;5026244;28;20256;-74
2023/09/01 01:20:37;;;;;;;9.50;6.88;;;;;;;;;;5029738;28;20197;-74
2023/09/01 01:23:17;;;;;;;7.85;6.22;;;;;;;;;;5013445;28;20784;-74
2023/09/01 01:25:49;;;;;;;10.82;6.55;;;;;;;;;;5026136;28;20221;-74
2023/09/01 01:28:16;;;;;;;8.43;6.82;;;;;;;;;;5008847;28;20277;-74
2023/09/01 01:30:41;;;;;;;10.15;7.15;;;;;;;;;;5027658;28;20264;-74
2023/09/01 01:33:27;;;;;;;15.25;7.40;;;;;;;;;;5030531;28;20302;-73
2023/09/01 01:36:40;;;;;;;13.80;7.28;;;;;;;;;;5032160;28;20200;-74
2023/09/01 01:39:09;;;;;;;11.23;6.88;;;;;;;;;;4986579;28;20190;-73
2023/09/01 01:41:43;;;;;;;9.23;7.40;;;;;;;;;;5031347;28;20538;-74
2023/09/01 01:44:11;;;;;;;9.65;6.95;;;;;;;;;;5021047;28;20193;-74
2023/09/01 01:46:38;;;;;;;9.88;7.57;;;;;;;;;;5011458;28;20206;-74
2023/09/01 01:49:14;;;;;;;10.60;7.97;;;;;;;;;;5010304;28;20304;-73
2023/09/01 01:51:40;;;;;;;13.80;8.30;;;;;;;;;;5033035;28;20200;-73
2023/09/01 01:54:05;;;;;;;10.05;7.55;;;;;;;;;;5033740;28;20189;-74
2023/09/01 01:56:31;;;;;;;13.70;7.45;;;;;;;;;;5032692;28;20273;-74
2023/09/01 01:58:56;;;;;;;10.45;7.50;;;;;;;;;;5042933;28;20182;-74
2023/09/01 02:01:22;;;;;;;9.93;7.03;;;;;;;;;;5031478;28;20257;-74
2023/09/01 02:03:47;;;;;;;9.70;8.13;;;;;;;;;;5036675;28;20186;-74
2023/09/01 02:06:13;;;;;;;13.45;8.05;;;;;;;;;;5033297;28;20297;-74
2023/09/01 02:08:38;;;;;;;10.77;8.10;;;;;;;;;;5032037;28;20206;-74
2023/09/01 02:11:04;;;;;;;13.05;8.07;;;;;;;;;;5037467;28;20193;-74
2023/09/01 02:13:30;;;;;;;12.68;8.07;;;;;;;;;;5031788;28;20197;-74
2023/09/01 02:15:56;;;;;;;10.55;8.13;;;;;;;;;;5033955;28;20190;-74
2023/09/01 02:18:21;;;;;;;13.27;7.40;;;;;;;;;;5007993;28;20229;-74
2023/09/01 02:20:47;;;;;;;13.68;8.30;;;;;;;;;;5036787;28;20190;-74
2023/09/01 02:23:16;;;;;;;8.98;7.93;;;;;;;;;;5026147;28;20720;-73
2023/09/01 02:25:43;;;;;;;12.43;8.80;;;;;;;;;;5032247;28;20711;-73
2023/09/01 02:28:08;;;;;;;13.68;9.20;;;;;;;;;;5032953;28;20198;-74
2023/09/01 02:30:34;;;;;;;13.85;9.90;;;;;;;;;;5026465;28;20649;-73
2023/09/01 02:32:59;;;;;;;14.57;9.93;;;;;;;;;;5029975;28;20190;-73
2023/09/01 02:35:25;;;;;;;12.25;9.30;;;;;;;;;;5021212;28;20198;-72
2023/09/01 02:37:50;;;;;;;15.23;10.50;;;;;;;;;;5028501;28;20591;-73
2023/09/01 02:40:15;;;;;;;14.38;10.02;;;;;;;;;;5031375;28;20200;-73
2023/09/01 02:42:41;;;;;;;16.15;10.32;;;;;;;;;;5024590;28;20280;-74
2023/09/01 02:45:11;;;;;;;11.40;9.88;;;;;;;;;;5033817;28;20229;-73
2023/09/01 02:47:36;;;;;;;10.73;9.40;;;;;;;;;;5030301;28;20347;-73
2023/09/01 02:50:04;;;;;;;13.20;8.98;;;;;;;;;;5036270;28;20591;-73
2023/09/01 02:52:30;;;;;;;13.52;9.15;;;;;;;;;;5006554;28;20194;-72
2023/09/01 02:54:55;;;;;;;14.57;10.07;;;;;;;;;;5033239;28;20255;-72
2023/09/01 02:57:22;;;;;;;14.40;8.77;;;;;;;;;;5035011;28;20186;-73
2023/09/01 02:59:47;;;;;;;14.32;9.90;;;;;;;;;;5031020;28;20186;-73
2023/09/01 03:02:13;;;;;;;16.30;9.57;;;;;;;;;;5031958;28;20182;-73
2023/09/01 03:04:38;;;;;;;12.73;9.82;;;;;;;;;;5033163;28;20269;-73
2023/09/01 03:07:03;;;;;;;13.45;9.70;;;;;;;;;;5023831;28;20214;-73
2023/09/01 03:09:29;;;;;;;13.68;9.80;;;;;;;;;;5024529;28;20745;-74
2023/09/01 03:11:54;;;;;;;16.63;9.57;;;;;;;;;;5032112;28;20296;-73
2023/09/01 03:14:20;;;;;;;13.52;9.25;;;;;;;;;;5034176;28;20186;-73
2023/09/01 03:16:45;;;;;;;11.90;8.98;;;;;;;;;;5014704;28;20668;-73
2023/09/01 03:19:11;;;;;;;12.05;10.07;;;;;;;;;;5030748;28;20200;-73
2023/09/01 03:21:36;;;;;;;13.93;9.75;;;;;;;;;;5019993;28;20730;-73
2023/09/01 03:24:02;;;;;;;15.90;11.00;;;;;;;;;;5014476;28;20259;-73
2023/09/01 03:26:31;;;;;;;16.67;10.18;;;;;;;;;;5026422;28;20253;-73
2023/09/01 03:28:56;;;;;;;17.98;11.63;;;;;;;;;;5030012;28;20198;-73
2023/09/01 03:31:21;;;;;;;17.05;10.98;;;;;;;;;;5029392;28;20352;-73
2023/09/01 03:33:47;;;;;;;18.45;12.05;;;;;;;;;;5031037;28;20213;-73
2023/09/01 03:36:13;;;;;;;18.25;12.00;;;;;;;;;;5028188;28;20186;-73
2023/09/01 03:38:38;;;;;;;20.23;13.73;;;;;;;;;;5031089;28;20234;-73
2023/09/01 03:41:05;;;;;;;18.80;13.05;;;;;;;;;;5017623;28;20232;-73
2023/09/01 03:43:31;;;;;;;24.38;14.07;;;;;;;;;;5023749;28;20645;-73
2023/09/01 03:45:57;;;;;;;20.67;14.73;;;;;;;;;;5036986;28;20236;-73
2023/09/01 03:48:24;;;;;;;24.15;15.05;;;;;;;;;;5022177;28;20201;-74
2023/09/01 03:51:17;;;;;;;27.50;17.25;;;;;;;;;;5019644;28;20191;-74
2023/09/01 03:53:43;;;;;;;24.95;16.25;;;;;;;;;;5029877;28;20205;-74
2023/09/01 03:56:12;;;;;;;26.48;18.10;;;;;;;;;;5024687;28;20178;-74
2023/09/01 03:58:38;;;;;;;29.25;17.75;;;;;;;;;;5015423;28;20572;-74
2023/09/01 04:01:08;;;;;;;27.60;17.35;;;;;;;;;;5029074;28;20192;-73
2023/09/01 04:03:43;;;;;;;26.73;15.00;;;;;;;;;;5023404;28;20344;-73
2023/09/01 04:06:09;;;;;;;23.70;14.80;;;;;;;;;;5029729;28;20197;-73
2023/09/01 04:08:35;;;;;;;21.70;13.25;;;;;;;;;;5015503;28;20195;-73
2023/09/01 04:11:02;;;;;;;21.60;13.82;;;;;;;;;;5029630;28;20182;-73
2023/09/01 04:13:28;;;;;;;19.95;15.00;;;;;;;;;;5020430;28;20635;-73
2023/09/01 04:15:53;;;;;;;22.20;14.48;;;;;;;;;;5030506;28;20178;-73
2023/09/01 04:18:18;;;;;;;20.80;13.68;;;;;;;;;;5028379;28;20347;-73
2023/09/01 04:20:52;;;;;;;20.45;14.95;;;;;;;;;;5028446;28;20642;-74
2023/09/01 04:23:18;;;;;;;21.67;14.80;;;;;;;;;;5026733;28;20256;-73
2023/09/01 04:25:44;;;;;;;21.20;15.55;;;;;;;;;;5030887;28;20186;-74
2023/09/01 04:28:10;;;;;;;23.92;15.60;;;;;;;;;;5017184;28;20582;-73
2023/09/01 04:30:36;;;;;;;25.00;16.05;;;;;;;;;;5024529;28;20213;-73
2023/09/01 04:33:04;;;;;;;26.50;16.50;;;;;;;;;;5016086;28;20228;-73
2023/09/01 04:35:29;;;;;;;23.30;13.95;;;;;;;;;;5012845;28;20284;-73
2023/09/01 04:37:54;;;;;;;23.92;15.70;;;;;;;;;;5023327;28;20238;-73
2023/09/01 04:40:20;;;;;;;25.65;14.98;;;;;;;;;;5018930;28;20206;-73
2023/09/01 04:42:45;;;;;;;23.88;15.55;;;;;;;;;;5016286;28;20552;-73
2023/09/01 04:45:11;;;;;;;20.30;15.07;;;;;;;;;;5028652;28;20233;-73
2023/09/01 04:47:36;;;;;;;24.08;14.52;;;;;;;;;;5030358;28;20728;-73
2023/09/01 04:50:03;;;;;;;20.88;13.40;;;;;;;;;;5027775;28;20250;-74
2023/09/01 04:52:28;;;;;;;25.15;15.68;;;;;;;;;;5025111;28;20186;-74
2023/09/01 04:54:54;;;;;;;19.83;14.23;;;;;;;;;;5026351;28;20194;-74
2023/09/01 04:57:19;;;;;;;22.48;16.00;;;;;;;;;;5030159;28;20222;-74
2023/09/01 04:59:45;;;;;;;21.20;15.57;;;;;;;;;;5007727;28;20543;-73
2023/09/01 05:02:10;;;;;;;20.98;15.98;;;;;;;;;;5029271;28;20201;-73
2023/09/01 05:04:36;;;;;;;25.90;16.58;;;;;;;;;;5022176;28;20652;-73
2023/09/01 05:07:01;;;;;;;22.85;15.68;;;;;;;;;;5029565;28;20218;-73
2023/09/01 05:09:27;;;;;;;23.05;16.70;;;;;;;;;;5021684;28;20201;-73
2023/09/01 05:11:52;;;;;;;29.08;16.42;;;;;;;;;;5026617;28;20221;-73
2023/09/01 05:14:17;;;;;;;24.10;16.25;;;;;;;;;;5025257;28;20193;-73
2023/09/01 05:16:43;;;;;;;21.60;17.48;;;;;;;;;;5021600;28;20186;-73
2023/09/01 05:19:08;;;;;;;20.58;14.73;;;;;;;;;;5027942;28;20189;-73
2023/09/01 05:21:33;;;;;;;20.42;15.98;;;;;;;;;;5009664;28;20239;-73
2023/09/01 05:23:59;;;;;;;23.15;15.57;;;;;;;;;;5020041;28;20213;-73
2023/09/01 05:26:24;;;;;;;22.77;15.48;;;;;;;;;;5021183;28;20627;-73
2023/09/01 05:28:50;;;;;;;25.20;16.23;;;;;;;;;;5026870;28;20197;-74
2023/09/01 05:31:15;;;;;;;30.48;18.65;;;;;;;;;;5022611;28;20594;-73
2023/09/01 05:33:40;;;;;;;27.52;18.23;;;;;;;;;;5024001;28;20586;-73
2023/09/01 05:36:06;;;;;;;26.95;18.38;;;;;;;;;;5032144;28;20413;-73
2023/09/01 05:38:31;;;;;;;27.13;16.73;;;;;;;;;;5029624;28;20680;-73
2023/09/01 05:40:58;;;;;;;30.10;17.77;;;;;;;;;;5028299;28;20182;-73
2023/09/01 05:43:24;;;;;;;24.88;17.75;;;;;;;;;;5026341;28;20218;-73
2023/09/01 05:45:49;;;;;;;23.83;17.88;;;;;;;;;;5027843;28;20273;-73
2023/09/01 05:48:14;;;;;;;26.10;17.42;;;;;;;;;;5028730;28;20259;-73
2023/09/01 05:50:42;;;;;;;27.92;18.15;;;;;;;;;;5029246;28;20190;-73
2023/09/01 05:53:08;;;;;;;24.33;17.77;;;;;;;;;;5022956;28;20197;-73
2023/09/01 05:55:33;;;;;;;27.90;17.92;;;;;;;;;;5023197;28;20668;-73
2023/09/01 05:57:59;;;;;;;25.88;17.70;;;;;;;;;;5027392;28;20222;-73
2023/09/01 06:00:24;;;;;;;28.00;17.48;;;;;;;;;;5020568;28;20233;-73
2023/09/01 06:02:51;;;;;;;28.17;17.27;;;;;;;;;;5026523;28;20273;-73
2023/09/01 06:05:17;;;;;;;26.63;15.93;;;;;;;;;;5025925;28;20237;-73
2023/09/01 06:07:42;;;;;;;29.50;15.82;;;;;;;;;;5027303;28;20220;-73
2023/09/01 06:10:08;;;;;;;27.67;17.00;;;;;;;;;;5015705;28;20245;-73
2023/09/01 06:12:34;;;;;;;24.77;15.85;;;;;;;;;;5020486;28;20194;-73
2023/09/01 06:14:59;;;;;;;20.83;15.13;;;;;;;;;;5026089;28;20189;-73
2023/09/01 06:17:25;;;;;;;24.88;16.17;;;;;;;;;;5014864;28;20578;-73
2023/09/01 06:19:50;;;;;;;19.30;15.60;;;;;;;;;;5021342;28;20194;-74
2023/09/01 06:22:15;;;;;;;20.05;12.45;;;;;;;;;;5023580;28;20230;-74
2023/09/01 06:24:41;;;;;;;22.08;15.02;;;;;;;;;;5027535;28;20198;-74
2023/09/01 06:27:06;;;;;;;20.88;14.85;;;;;;;;;;5028482;28;20647;-74
2023/09/01 06:29:32;;;;;;;19.55;14.63;;;;;;;;;;5024450;28;20279;-74
2023/09/01 06:31:57;;;;;;;22.33;14.43;;;;;;;;;;5028186;28;20190;-74
2023/09/01 06:34:23;;;;;;;21.48;13.82;;;;;;;;;;5019626;28;20202;-74
2023/09/01 06:36:48;;;;;;;23.17;14.27;;;;;;;;;;5012880;28;20178;-75
2023/09/01 06:39:16;;;;;;;26.98;14.88;;;;;;;;;;5029158;28;20190;-74
2023/09/01 06:41:41;;;;;;;21.58;13.88;;;;;;;;;;5027349;28;20205;-75
2023/09/01 06:44:06;;;;;;;20.05;14.30;;;;;;;;;;5024992;28;20186;-74
2023/09/01 06:46:32;;;;;;;18.67;13.70;;;;;;;;;;5029922;28;20315;-74
2023/09/01 06:48:57;;;;;;;18.30;13.30;;;;;;;;;;5024991;28;20186;-74
2023/09/01 06:51:23;;;;;;;21.40;12.05;;;;;;;;;;5024036;28;20186;-73
2023/09/01 06:53:48;;;;;;;20.75;13.57;;;;;;;;;;5023682;28;20206;-74
2023/09/01 06:56:14;;;;;;;24.20;13.77;;;;;;;;;;5032859;28;20248;-74
2023/09/01 06:58:39;;;;;;;19.55;12.75;;;;;;;;;;5027538;28;20183;-74
2023/09/01 07:01:08;;;;;;;18.95;12.60;;;;;;;;;;5007269;28;20221;-74
2023/09/01 07:03:34;;;;;;;19.17;12.15;;;;;;;;;;5021817;28;20186;-74
2023/09/01 07:05:59;;;;;;;17.70;13.05;;;;;;;;;;5026265;28;20186;-74
2023/09/01 07:08:28;;;;;;;18.15;12.60;;;;;;;;;;5003006;28;20190;-74
2023/09/01 07:10:58;;;;;;;19.65;11.82;;;;;;;;;;5031055;28;20190;-74
2023/09/01 07:13:24;;;;;;;17.55;11.43;;;;;;;;;;5025006;28;20747;-74
2023/09/01 07:15:49;;;;;;;17.73;11.43;;;;;;;;;;5026563;28;20198;-74
2023/09/01 07:18:14;;;;;;;17.42;12.25;;;;;;;;;;5019733;28;20533;-74
2023/09/01 07:20:40;;;;;;;17.02;11.20;;;;;;;;;;5030801;28;20218;-75
2023/09/01 07:23:05;;;;;;;17.50;11.57;;;;;;;;;;5029963;28;20199;-75
2023/09/01 07:25:31;;;;;;;18.48;10.82;;;;;;;;;;5020610;28;20299;-75
2023/09/01 07:27:56;;;;;;;16.08;9.88;;;;;;;;;;5031306;28;20228;-75
2023/09/01 07:30:22;;;;;;;14.85;9.48;;;;;;;;;;5029174;28;20190;-75
2023/09/01 07:32:47;;;;;;;22.83;10.93;;;;;;;;;;5026796;28;20186;-75
2023/09/01 07:35:12;;;;;;;15.40;10.13;;;;;;;;;;5030119;28;20225;-75
2023/09/01 07:37:38;;;;;;;18.17;9.57;;;;;;;;;;5034992;28;20185;-75
2023/09/01 07:40:04;;;;;;;15.35;9.88;;;;;;;;;;5014279;28;20201;-75
2023/09/01 07:42:30;;;;;;;16.52;9.88;;;;;;;;;;5028450;28;20292;-75
2023/09/01 07:44:55;;;;;;;19.80;10.38;;;;;;;;;;5024786;28;20563;-75
2023/09/01 07:47:21;;;;;;;16.30;9.48;;;;;;;;;;5025228;28;20429;-75
2023/09/01 07:49:46;;;;;;;15.98;9.57;;;;;;;;;;5030390;28;20244;-76
2023/09/01 07:52:12;;;;;;;15.30;9.52;;;;;;;;;;5029567;28;20578;-75
2023/09/01 07:54:37;;;;;;;17.17;10.02;;;;;;;;;;5004324;28;20283;-75
2023/09/01 07:57:03;;;;;;;16.35;9.88;;;;;;;;;;5017572;28;20198;-75
2023/09/01 07:59:28;;;;;;;15.07;10.27;;;;;;;;;;5023840;28;20624;-75
2023/09/01 08:01:54;;;;;;;16.92;9.43;;;;;;;;;;5030364;28;20276;-75
2023/09/01 08:04:19;;;;;;;13.82;9.50;;;;;;;;;;5018084;28;20564;-75
2023/09/01 08:06:46;;;;;;;14.45;9.45;;;;;;;;;;5002497;28;20267;-75
2023/09/01 08:09:12;;;;;;;16.02;9.02;;;;;;;;;;5012805;28;20195;-74
2023/09/01 08:11:37;;;;;;;13.90;8.88;;;;;;;;;;5022904;28;20544;-75
2023/09/01 08:14:03;;;;;;;12.38;9.00;;;;;;;;;;5026793;28;20182;-75
2023/09/01 08:16:28;;;;;;;16.58;9.05;;;;;;;;;;5023643;28;20203;-75
2023/09/01 08:18:58;;;;;;;14.27;8.57;;;;;;;;;;5028840;28;20266;-75
2023/09/01 08:21:24;;;;;;;15.88;9.02;;;;;;;;;;4322467;28;10000752;-76
2023/09/01 08:23:50;;;;;;;16.75;9.57;;;;;;;;;;5019962;28;20616;-76
2023/09/01 08:26:15;;;;;;;14.50;9.13;;;;;;;;;;5026838;28;20214;-75
2023/09/01 08:28:41;;;;;;;20.73;9.65;;;;;;;;;;5025021;28;20744;-76
2023/09/01 08:31:06;;;;;;;14.18;8.95;;;;;;;;;;5026392;28;20197;-75
2023/09/01 08:33:32;;;;;;;19.23;8.75;;;;;;;;;;5021261;28;20193;-75
2023/09/01 08:36:03;;;;;;;12.77;8.68;;;;;;;;;;5025476;28;20201;-76
2023/09/01 08:38:29;;;;;;;13.25;8.55;;;;;;;;;;5019448;28;20566;-76
2023/09/01 08:41:04;;;;;;;14.10;8.38;;;;;;;;;;5023770;28;20186;-76
2023/09/01 08:43:34;;;;;;;16.80;8.57;;;;;;;;;;5033031;28;20563;-76
2023/09/01 08:46:03;;;;;;;15.82;7.72;;;;;;;;;;5026036;28;20230;-75
2023/09/01 08:48:28;;;;;;;14.25;8.35;;;;;;;;;;5026936;28;20187;-75
2023/09/01 08:50:56;;;;;;;18.05;8.27;;;;;;;;;;5021059;28;20508;-76
2023/09/01 08:53:21;;;;;;;14.30;7.70;;;;;;;;;;5025723;28;20197;-76
2023/09/01 08:55:48;;;;;;;10.35;6.70;;;;;;;;;;5022766;28;20187;-75
2023/09/01 08:58:13;;;;;;;15.23;7.82;;;;;;;;;;5007005;28;20787;-76
2023/09/01 09:00:39;;;;;;;15.45;7.90;;;;;;;;;;5020169;28;20192;-75
2023/09/01 09:03:05;;;;;;;16.92;8.38;;;;;;;;;;5021197;28;20269;-75
2023/09/01 09:05:32;;;;;;;17.25;7.88;;;;;;;;;;5029395;28;20557;-75
2023/09/01 09:07:59;;;;;;;11.68;7.07;;;;;;;;;;5020284;28;20261;-75
2023/09/01 09:10:43;;;;;;;16.00;8.32;;;;;;;;;;5022397;28;20220;-75
2023/09/01 09:13:24;;;;;;;18.25;8.27;;;;;;;;;;5028459;28;20194;-75
2023/09/01 09:16:06;;;;;;;15.88;8.38;;;;;;;;;;5029089;28;20202;-75
2023/09/01 09:18:31;;;;;;;14.77;7.70;;;;;;;;;;5022176;28;20212;-75
2023/09/01 09:20:57;;;;;;;14.57;8.35;;;;;;;;;;5015987;28;20269;-75
2023/09/01 09:23:41;;;;;;;14.15;7.55;;;;;;;;;;5022295;28;20194;-75
2023/09/01 09:26:07;;;;;;;14.18;8.32;;;;;;;;;;5030334;28;20190;-75
2023/09/01 09:28:33;;;;;;;14.05;7.70;;;;;;;;;;5026322;28;20204;-75
2023/09/01 09:31:00;;;;;;;16.33;8.32;;;;;;;;;;5027285;28;20186;-75
2023/09/01 09:33:33;;;;;;;15.45;8.48;;;;;;;;;;5028626;28;20621;-75
2023/09/01 09:36:00;;;;;;;11.93;6.95;;;;;;;;;;5019236;28;20194;-75
2023/09/01 09:38:42;;;;;;;16.17;7.35;;;;;;;;;;5026797;28;20660;-75
2023/09/01 09:41:08;;;;;;;16.00;7.60;;;;;;;;;;5020835;28;20194;-75
2023/09/01 09:43:47;;;;;;;13.88;6.85;;;;;;;;;;5027054;28;20197;-75
2023/09/01 09:46:19;;;;;;;12.40;6.18;;;;;;;;;;4792918;28;10000518;-75
2023/09/01 09:48:45;;;;;;;12.98;6.68;;;;;;;;;;5015066;28;20914;-76
2023/09/01 09:51:11;;;;;;;9.85;6.30;;;;;;;;;;5025394;28;20198;-76
2023/09/01 09:53:38;;;;;;;11.15;5.60;;;;;;;;;;5025259;28;20590;-75
2023/09/01 09:56:18;;;;;;;15.30;7.28;;;;;;;;;;5018874;28;20462;-75
2023/09/01 09:58:46;;;;;;;15.88;6.30;;;;;;;;;;5022565;28;20684;-75
2023/09/01 10:01:19;;;;;;;13.82;6.20;;;;;;;;;;5020793;28;20706;-75
2023/09/01 10:03:47;;;;;;;9.98;5.78;;;;;;;;;;5006296;28;20198;-75
2023/09/01 10:06:14;;;;;;;10.43;5.20;;;;;;;;;;5017054;28;20406;-75
2023/09/01 10:08:40;;;;;;;9.27;5.43;;;;;;;;;;5025157;28;20286;-75
2023/09/01 10:11:08;;;;;;;7.82;5.45;;;;;;;;;;5030231;28;20273;-74
2023/09/01 10:13:34;;;;;;;9.40;5.20;;;;;;;;;;5020325;28;20194;-74
2023/09/01 10:16:00;;;;;;;8.93;5.45;;;;;;;;;;5019503;28;20533;-76
2023/09/01 10:18:27;;;;;;;8.55;5.32;;;;;;;;;;5021271;28;20225;-74
2023/09/01 10:20:53;;;;;;;10.85;6.22;;;;;;;;;;5025825;28;20211;-75
2023/09/01 10:23:19;;;;;;;9.60;5.25;;;;;;;;;;5028427;28;20320;-75
2023/09/01 10:26:14;;;;;;;10.43;6.30;;;;;;;;;;5026224;28;20190;-75
2023/09/01 10:28:57;;;;;;;7.85;5.78;;;;;;;;;;5023155;28;20210;-75
2023/09/01 10:31:23;;;;;;;8.75;5.70;;;;;;;;;;5024564;28;20194;-75
2023/09/01 10:34:13;;;;;;;11.23;6.03;;;;;;;;;;5029192;28;20198;-75
2023/09/01 10:36:40;;;;;;;10.77;6.50;;;;;;;;;;5012486;28;20237;-75
2023/09/01 10:39:24;;;;;;;12.70;6.25;;;;;;;;;;5005498;28;20183;-75
2023/09/01 10:42:00;;;;;;;11.52;6.03;;;;;;;;;;5025830;28;20194;-75
2023/09/01 10:44:42;;;;;;;8.68;6.20;;;;;;;;;;5026531;28;20213;-75
2023/09/01 10:47:32;;;;;;;9.70;6.18;;;;;;;;;;5035330;28;20221;-74
2023/09/01 10:49:58;;;;;;;9.93;6.05;;;;;;;;;;5021452;28;20233;-75
2023/09/01 10:52:24;;;;;;;11.55;6.35;;;;;;;;;;5028520;28;20225;-74
2023/09/01 10:55:05;;;;;;;12.98;6.72;;;;;;;;;;5022211;28;20187;-76
2023/09/01 10:57:51;;;;;;;13.13;5.70;;;;;;;;;;5022019;28;20627;-76
2023/09/01 11:00:31;;;;;;;6.97;5.35;;;;;;;;;;5022988;28;20199;-75
2023/09/01 11:03:31;;;;;;;11.10;6.30;;;;;;;;;;5037985;28;20416;-74
2023/09/01 11:05:57;;;;;;;10.27;6.25;;;;;;;;;;5020508;28;20210;-75
2023/09/01 11:08:25;;;;;;;9.30;6.07;;;;;;;;;;5010439;28;20553;-75
2023/09/01 11:10:55;;;;;;;9.50;6.05;;;;;;;;;;5029648;28;20677;-74
2023/09/01 11:13:24;;;;;;;8.85;5.72;;;;;;;;;;5014319;28;20191;-75
2023/09/01 11:15:50;;;;;;;16.02;6.10;;;;;;;;;;5004047;28;20637;-74
2023/09/01 11:18:23;;;;;;;10.32;6.13;;;;;;;;;;5029490;28;20651;-74
2023/09/01 11:20:55;;;;;;;8.75;5.93;;;;;;;;;;5028960;28;20605;-75
2023/09/01 11:23:22;;;;;;;10.75;5.85;;;;;;;;;;5022939;28;20193;-74
2023/09/01 11:25:53;;;;;;;14.23;6.55;;;;;;;;;;5017942;28;20277;-74
2023/09/01 11:28:20;;;;;;;9.02;6.22;;;;;;;;;;5028611;28;20638;-74
2023/09/01 11:31:04;;;;;;;11.10;6.38;;;;;;;;;;5028158;28;20197;-75
2023/09/01 11:33:36;;;;;;;9.45;6.20;;;;;;;;;;5030600;28;20194;-75
2023/09/01 11:36:04;;;;;;;10.68;5.97;;;;;;;;;;5027292;28;20255;-75
2023/09/01 11:38:30;;;;;;;11.82;6.82;;;;;;;;;;5031661;28;20271;-75
2023/09/01 11:40:56;;;;;;;11.90;6.40;;;;;;;;;;4997810;28;20178;-75
2023/09/01 11:43:23;;;;;;;10.63;6.85;;;;;;;;;;5031286;28;20190;-74
2023/09/01 11:45:49;;;;;;;10.52;6.30;;;;;;;;;;5025704;28;20233;-75
2023/09/01 11:48:23;;;;;;;9.75;6.32;;;;;;;;;;5030112;28;20530;-75
2023/09/01 11:50:49;;;;;;;8.90;6.22;;;;;;;;;;5025173;28;20189;-75
2023/09/01 11:53:27;;;;;;;11.52;6.47;;;;;;;;;;5025241;28;20635;-75
2023/09/01 11:55:58;;;;;;;7.63;6.00;;;;;;;;;;5025972;28;20204;-75
2023/09/01 11:58:23;;;;;;;10.18;6.50;;;;;;;;;;5025776;28;20193;-75
2023/09/01 12:00:49;;;;;;;9.70;6.00;;;;;;;;;;5022896;28;20194;-75
2023/09/01 12:03:21;;;;;;;8.95;6.65;;;;;;;;;;5007706;28;20536;-75
2023/09/01 12:05:46;;;;;;;9.00;6.05;;;;;;;;;;5023201;28;20194;-75
2023/09/01 12:08:12;;;;;;;10.13;6.63;;;;;;;;;;5028943;28;20379;-75
2023/09/01 12:10:37;;;;;;;9.00;6.20;;;;;;;;;;5026821;28;20186;-74
2023/09/01 12:13:12;;;;;;;9.82;6.40;;;;;;;;;;5030350;28;20194;-74
2023/09/01 12:16:00;;;;;;;11.18;6.35;;;;;;;;;;5024901;28;20232;-75
2023/09/01 12:18:34;;;;;;;11.30;7.32;;;;;;;;;;5024367;28;20579;-75
2023/09/01 12:21:07;;;;;;;11.88;6.30;;;;;;;;;;5028588;28;20178;-75
2023/09/01 12:23:38;;;;;;;7.88;6.53;;;;;;;;;;5024046;28;20491;-75
2023/09/01 12:26:04;;;;;;;10.05;6.35;;;;;;;;;;5014405;28;20183;-74
2023/09/01 12:28:32;;;;;;;12.82;6.68;;;;;;;;;;5009012;28;20191;-75
2023/09/01 12:30:59;;;;;;;9.55;6.20;;;;;;;;;;5040636;28;20526;-75
2023/09/01 12:33:25;;;;;;;9.57;6.45;;;;;;;;;;5024010;28;20559;-75
2023/09/01 12:35:51;;;;;;;8.60;6.13;;;;;;;;;;5007522;28;20312;-75
2023/09/01 12:38:17;;;;;;;11.43;6.53;;;;;;;;;;5030136;28;20265;-75
2023/09/01 12:40:43;;;;;;;8.40;5.55;;;;;;;;;;5027759;28;20192;-75
2023/09/01 12:43:08;;;;;;;7.85;5.55;;;;;;;;;;5028009;28;20181;-74
2023/09/01 12:45:35;;;;;;;9.05;5.95;;;;;;;;;;5024754;28;20226;-75
2023/09/01 12:48:01;;;;;;;10.52;6.50;;;;;;;;;;5027191;28;20214;-73
2023/09/01 12:50:26;;;;;;;9.23;6.53;;;;;;;;;;5021137;28;20187;-74
2023/09/01 12:52:53;;;;;;;10.68;6.53;;;;;;;;;;5029461;28;20182;-75
2023/09/01 12:55:19;;;;;;;9.23;6.68;;;;;;;;;;5028758;28;20258;-75
2023/09/01 12:57:44;;;;;;;8.70;6.65;;;;;;;;;;5020886;28;20580;-75
2023/09/01 13:00:10;;;;;;;8.75;6.80;;;;;;;;;;5025697;28;20189;-74
2023/09/01 13:02:36;;;;;;;8.45;6.18;;;;;;;;;;4323800;28;10000840;-75
2023/09/01 13:05:02;;;;;;;9.18;6.38;;;;;;;;;;5025561;28;20247;-75
2023/09/01 13:07:27;;;;;;;9.77;7.07;;;;;;;;;;5023241;28;20218;-75
2023/09/01 13:09:52;;;;;;;10.00;6.40;;;;;;;;;;5008081;28;20281;-75
2023/09/01 13:12:18;;;;;;;10.23;6.55;;;;;;;;;;5020907;28;20553;-75
2023/09/01 13:14:43;;;;;;;10.05;6.55;;;;;;;;;;5025783;28;20200;-75
2023/09/01 13:17:09;;;;;;;9.75;7.07;;;;;;;;;;5015715;28;20270;-75
2023/09/01 13:19:34;;;;;;;9.07;6.82;;;;;;;;;;5019819;28;20209;-75
2023/09/01 13:22:00;;;;;;;11.48;6.95;;;;;;;;;;5026104;28;20209;-75
2023/09/01 13:24:25;;;;;;;9.82;7.05;;;;;;;;;;5024937;28;20181;-74
2023/09/01 13:26:52;;;;;;;10.50;6.80;;;;;;;;;;5025823;28;20210;-75
2023/09/01 13:29:17;;;;;;;11.00;7.25;;;;;;;;;;5024895;28;20194;-74
2023/09/01 13:31:43;;;;;;;10.30;6.95;;;;;;;;;;5021579;28;20898;-75
2023/09/01 13:34:08;;;;;;;8.50;7.35;;;;;;;;;;5012618;28;20301;-73
2023/09/01 13:36:33;;;;;;;11.18;7.32;;;;;;;;;;5031027;28;20252;-73
2023/09/01 13:38:59;;;;;;;10.75;6.93;;;;;;;;;;5030941;28;20190;-75
2023/09/01 13:41:24;;;;;;;9.43;6.85;;;;;;;;;;5023167;28;20207;-75
2023/09/01 13:43:50;;;;;;;8.98;6.97;;;;;;;;;;5025877;28;20684;-75
2023/09/01 13:46:21;;;;;;;9.18;6.97;;;;;;;;;;5020276;28;20234;-75
2023/09/01 13:48:49;;;;;;;8.98;7.00;;;;;;;;;;5022102;28;20274;-75
2023/09/01 13:51:15;;;;;;;8.65;6.88;;;;;;;;;;5006077;28;20715;-75
2023/09/01 13:53:40;;;;;;;12.23;7.32;;;;;;;;;;5022005;28;20222;-74
2023/09/01 13:56:06;;;;;;;8.90;7.07;;;;;;;;;;5022230;28;20198;-75
2023/09/01 13:58:31;;;;;;;10.45;6.90;;;;;;;;;;5030110;28;20261;-75
2023/09/01 14:00:57;;;;;;;10.85;7.18;;;;;;;;;;5004161;28;20193;-75
2023/09/01 14:03:22;;;;;;;9.80;6.25;;;;;;;;;;5025949;28;20717;-73
2023/09/01 14:05:47;;;;;;;6.97;5.78;;;;;;;;;;5022027;28;20224;-75
2023/09/01 14:08:13;;;;;;;11.10;6.65;;;;;;;;;;5023514;28;20328;-75
2023/09/01 14:10:40;;;;;;;11.00;8.10;;;;;;;;;;5026492;28;20190;-74
2023/09/01 14:13:05;;;;;;;11.15;7.53;;;;;;;;;;5005335;28;20256;-74
2023/09/01 14:15:31;;;;;;;9.55;7.05;;;;;;;;;;5030655;28;20186;-74
2023/09/01 14:17:57;;;;;;;9.98;7.38;;;;;;;;;;5029604;28;20220;-73
2023/09/01 14:20:22;;;;;;;9.30;7.10;;;;;;;;;;5024862;28;20280;-72
2023/09/01 14:22:47;;;;;;;9.10;6.50;;;;;;;;;;5026873;28;20259;-72
2023/09/01 14:25:13;;;;;;;11.10;7.03;;;;;;;;;;5029752;28;20230;-73
2023/09/01 14:27:38;;;;;;;9.10;7.10;;;;;;;;;;5022902;28;20209;-72
2023/09/01 14:30:04;;;;;;;10.68;7.65;;;;;;;;;;5026117;28;20279;-72
2023/09/01 14:32:29;;;;;;;9.07;7.57;;;;;;;;;;5017660;28;20182;-73